sensor_id;sensor_type;location;lat;lon;timestamp;pressure;altitude;pressure_sealevel;temperature;humidity
75006;BME280;63553;51.814;4.600;2023-06-14T00:02:16;101622.13;;;22.02;44.41
75006;BME280;63553;51.814;4.600;2023-06-14T00:04:41;101633.66;;;20.10;44.51
75006;BME280;63553;51.814;4.600;2023-06-14T00:07:08;101632.19;;;20.51;43.00
75006;BME280;63553;51.814;4.600;2023-06-14T00:09:34;101631.34;;;20.89;43.03
75006;BME280;63553;51.814;4.600;2023-06-14T00:12:00;101623.53;;;21.01;43.34
75006;BME280;63553;51.814;4.600;2023-06-14T00:14:25;101627.91;;;21.86;44.49
75006;BME280;63553;51.814;4.600;2023-06-14T00:16:51;101632.84;;;21.67;42.43
75006;BME280;63553;51.814;4.600;2023-06-14T00:19:18;101630.28;;;20.97;45.38
75006;BME280;63553;51.814;4.600;2023-06-14T00:21:44;101636.41;;;20.80;45.91
75006;BME280;63553;51.814;4.600;2023-06-14T00:24:10;101648.91;;;20.79;44.82
75006;BME280;63553;51.814;4.600;2023-06-14T00:26:36;101635.16;;;21.16;43.66
75006;BME280;63553;51.814;4.600;2023-06-14T00:29:01;101637.78;;;20.16;45.46
75006;BME280;63553;51.814;4.600;2023-06-14T00:31:26;101633.47;;;21.11;44.41
75006;BME280;63553;51.814;4.600;2023-06-14T00:33:52;101641.22;;;20.41;46.01
75006;BME280;63553;51.814;4.600;2023-06-14T00:36:17;101638.69;;;22.26;44.90
75006;BME280;63553;51.814;4.600;2023-06-14T00:38:42;101625.56;;;22.71;43.25
75006;BME280;63553;51.814;4.600;2023-06-14T00:41:08;101632.53;;;21.07;44.02
75006;BME280;63553;51.814;4.600;2023-06-14T00:43:33;101635.41;;;22.24;44.65
75006;BME280;63553;51.814;4.600;2023-06-14T00:46:00;101635.72;;;21.93;45.05
75006;BME280;63553;51.814;4.600;2023-06-14T00:48:25;101637.84;;;20.89;45.07
75006;BME280;63553;51.814;4.600;2023-06-14T00:50:51;101628.06;;;21.93;44.98
75006;BME280;63553;51.814;4.600;2023-06-14T00:53:18;101643.56;;;21.80;43.14
75006;BME280;63553;51.814;4.600;2023-06-14T00:55:46;101635.94;;;21.58;44.03
75006;BME280;63553;51.814;4.600;2023-06-14T00:58:11;101640.22;;;20.68;45.76
75006;BME280;63553;51.814;4.600;2023-06-14T01:00:36;101638.28;;;20.72;44.80
75006;BME280;63553;51.814;4.600;2023-06-14T01:03:02;101631.66;;;21.22;43.92
75006;BME280;63553;51.814;4.600;2023-06-14T01:05:28;101634.59;;;20.33;46.07
75006;BME280;63553;51.814;4.600;2023-06-14T01:08:39;101645.16;;;20.36;45.80
75006;BME280;63553;51.814;4.600;2023-06-14T01:11:22;101641.63;;;20.59;44.99
75006;BME280;63553;51.814;4.600;2023-06-14T01:13:51;101637.44;;;20.52;46.35
75006;BME280;63553;51.814;4.600;2023-06-14T01:16:19;101648.03;;;20.05;46.80
75006;BME280;63553;51.814;4.600;2023-06-14T01:18:45;101641.56;;;20.05;46.49
75006;BME280;63553;51.814;4.600;2023-06-14T01:21:23;101641.53;;;20.20;46.34
75006;BME280;63553;51.814;4.600;2023-06-14T01:23:49;101633.44;;;20.19;48.14
75006;BME280;63553;51.814;4.600;2023-06-14T01:26:19;101640.22;;;20.68;48.28
75006;BME280;63553;51.814;4.600;2023-06-14T01:28:45;101636.41;;;19.44;47.97
75006;BME280;63553;51.814;4.600;2023-06-14T01:31:16;101637.84;;;20.01;47.99
75006;BME280;63553;51.814;4.600;2023-06-14T01:33:41;101630.63;;;19.25;48.14
75006;BME280;63553;51.814;4.600;2023-06-14T01:36:08;101629.03;;;20.56;45.79
75006;BME280;63553;51.814;4.600;2023-06-14T01:38:34;101643.03;;;19.52;48.43
75006;BME280;63553;51.814;4.600;2023-06-14T01:41:01;101638.13;;;19.49;48.48
75006;BME280;63553;51.814;4.600;2023-06-14T01:43:30;101640.97;;;19.49;49.68
75006;BME280;63553;51.814;4.600;2023-06-14T01:45:57;101633.78;;;19.08;47.95
75006;BME280;63553;51.814;4.600;2023-06-14T01:48:23;101623.94;;;19.02;50.38
75006;BME280;63553;51.814;4.600;2023-06-14T01:50:49;101622.50;;;18.80;48.38
75006;BME280;63553;51.814;4.600;2023-06-14T01:53:15;101620.38;;;18.89;48.44
75006;BME280;63553;51.814;4.600;2023-06-14T01:55:41;101629.97;;;19.00;48.25
75006;BME280;63553;51.814;4.600;2023-06-14T01:58:09;101627.81;;;18.81;48.54
75006;BME280;63553;51.814;4.600;2023-06-14T02:00:35;101640.72;;;18.82;48.33
75006;BME280;63553;51.814;4.600;2023-06-14T02:03:00;101635.84;;;18.95;48.03
75006;BME280;63553;51.814;4.600;2023-06-14T02:05:26;101629.38;;;18.95;50.14
75006;BME280;63553;51.814;4.600;2023-06-14T02:07:52;101630.94;;;19.67;50.73
75006;BME280;63553;51.814;4.600;2023-06-14T02:10:18;101636.69;;;19.86;50.03
75006;BME280;63553;51.814;4.600;2023-06-14T02:12:44;101634.69;;;19.55;46.92
75006;BME280;63553;51.814;4.600;2023-06-14T02:15:10;101635.50;;;19.71;46.71
75006;BME280;63553;51.814;4.600;2023-06-14T02:17:42;101632.03;;;19.78;48.63
75006;BME280;63553;51.814;4.600;2023-06-14T02:20:07;101631.25;;;19.18;47.00
75006;BME280;63553;51.814;4.600;2023-06-14T02:22:33;101632.00;;;18.48;50.02
75006;BME280;63553;51.814;4.600;2023-06-14T02:24:58;101631.03;;;18.96;49.13
75006;BME280;63553;51.814;4.600;2023-06-14T02:27:24;101632.13;;;19.07;47.59
75006;BME280;63553;51.814;4.600;2023-06-14T02:29:49;101638.63;;;18.79;47.96
75006;BME280;63553;51.814;4.600;2023-06-14T02:32:15;101636.31;;;18.97;49.16
75006;BME280;63553;51.814;4.600;2023-06-14T02:34:40;101636.97;;;18.78;48.15
75006;BME280;63553;51.814;4.600;2023-06-14T02:37:06;101639.31;;;19.04;49.69
75006;BME280;63553;51.814;4.600;2023-06-14T02:39:31;101643.34;;;19.03;48.35
75006;BME280;63553;51.814;4.600;2023-06-14T02:41:57;101645.56;;;18.98;48.45
75006;BME280;63553;51.814;4.600;2023-06-14T02:44:26;101639.78;;;19.50;46.47
75006;BME280;63553;51.814;4.600;2023-06-14T02:46:56;101639.56;;;20.05;48.82
75006;BME280;63553;51.814;4.600;2023-06-14T02:49:22;101638.66;;;18.95;48.22
75006;BME280;63553;51.814;4.600;2023-06-14T02:51:47;101628.34;;;19.30;46.55
75006;BME280;63553;51.814;4.600;2023-06-14T02:54:12;101646.44;;;20.23;48.46
75006;BME280;63553;51.814;4.600;2023-06-14T02:56:38;101635.00;;;20.51;47.77
75006;BME280;63553;51.814;4.600;2023-06-14T02:59:04;101643.41;;;19.66;45.72
75006;BME280;63553;51.814;4.600;2023-06-14T03:01:29;101646.03;;;20.75;46.93
75006;BME280;63553;51.814;4.600;2023-06-14T03:04:02;101654.38;;;20.33;47.26
75006;BME280;63553;51.814;4.600;2023-06-14T03:06:29;101645.66;;;20.96;44.14
75006;BME280;63553;51.814;4.600;2023-06-14T03:08:56;101648.56;;;20.11;45.39
75006;BME280;63553;51.814;4.600;2023-06-14T03:11:25;101649.13;;;21.50;44.92
75006;BME280;63553;51.814;4.600;2023-06-14T03:13:51;101651.34;;;20.42;44.59
75006;BME280;63553;51.814;4.600;2023-06-14T03:16:17;101651.22;;;21.76;44.77
75006;BME280;63553;51.814;4.600;2023-06-14T03:18:45;101649.81;;;22.12;43.97
75006;BME280;63553;51.814;4.600;2023-06-14T03:21:10;101646.19;;;21.66;42.78
75006;BME280;63553;51.814;4.600;2023-06-14T03:23:36;101655.00;;;22.62;42.46
75006;BME280;63553;51.814;4.600;2023-06-14T03:26:01;101662.91;;;23.43;41.05
75006;BME280;63553;51.814;4.600;2023-06-14T03:28:26;101656.59;;;23.27;40.62
75006;BME280;63553;51.814;4.600;2023-06-14T03:30:52;101657.28;;;23.97;39.76
75006;BME280;63553;51.814;4.600;2023-06-14T03:33:17;101664.97;;;24.41;38.90
75006;BME280;63553;51.814;4.600;2023-06-14T03:35:43;101669.16;;;24.64;38.52
75006;BME280;63553;51.814;4.600;2023-06-14T03:38:08;101668.03;;;24.83;38.10
75006;BME280;63553;51.814;4.600;2023-06-14T03:40:33;101677.41;;;24.87;37.93
75006;BME280;63553;51.814;4.600;2023-06-14T03:42:59;101677.69;;;24.64;37.93
75006;BME280;63553;51.814;4.600;2023-06-14T03:45:25;101673.31;;;24.16;39.37
75006;BME280;63553;51.814;4.600;2023-06-14T03:47:50;101681.50;;;22.47;40.44
75006;BME280;63553;51.814;4.600;2023-06-14T03:50:17;101668.25;;;23.55;40.23
75006;BME280;63553;51.814;4.600;2023-06-14T03:52:43;101684.91;;;22.60;39.07
75006;BME280;63553;51.814;4.600;2023-06-14T03:55:09;101685.19;;;22.51;41.56
75006;BME280;63553;51.814;4.600;2023-06-14T03:57:35;101685.47;;;21.48;43.63
75006;BME280;63553;51.814;4.600;2023-06-14T04:00:00;101682.25;;;23.37;40.72
75006;BME280;63553;51.814;4.600;2023-06-14T04:02:26;101683.16;;;21.54;41.50
75006;BME280;63553;51.814;4.600;2023-06-14T04:04:54;101684.38;;;22.25;39.59
75006;BME280;63553;51.814;4.600;2023-06-14T04:07:20;101681.72;;;24.09;39.79
75006;BME280;63553;51.814;4.600;2023-06-14T04:09:45;101695.63;;;21.49;41.53
75006;BME280;63553;51.814;4.600;2023-06-14T04:12:11;101683.47;;;24.20;37.31
75006;BME280;63553;51.814;4.600;2023-06-14T04:14:37;101699.03;;;25.06;37.55
75006;BME280;63553;51.814;4.600;2023-06-14T04:17:03;101698.28;;;24.44;38.22
75006;BME280;63553;51.814;4.600;2023-06-14T04:19:29;101689.00;;;23.22;38.12
75006;BME280;63553;51.814;4.600;2023-06-14T04:21:54;101699.09;;;24.48;38.19
75006;BME280;63553;51.814;4.600;2023-06-14T04:24:20;101690.47;;;24.33;36.33
75006;BME280;63553;51.814;4.600;2023-06-14T04:26:45;101696.34;;;24.58;37.22
75006;BME280;63553;51.814;4.600;2023-06-14T04:29:13;101702.69;;;22.31;39.23
75006;BME280;63553;51.814;4.600;2023-06-14T04:31:41;101699.03;;;21.58;41.46
75006;BME280;63553;51.814;4.600;2023-06-14T04:34:07;101692.41;;;22.19;39.78
75006;BME280;63553;51.814;4.600;2023-06-14T04:36:33;101689.41;;;24.01;38.06
75006;BME280;63553;51.814;4.600;2023-06-14T04:39:17;101693.59;;;21.73;40.60
75006;BME280;63553;51.814;4.600;2023-06-14T04:41:45;101697.41;;;21.00;43.86
75006;BME280;63553;51.814;4.600;2023-06-14T04:44:12;101700.59;;;21.14;42.65
75006;BME280;63553;51.814;4.600;2023-06-14T04:46:38;101698.44;;;21.49;41.50
75006;BME280;63553;51.814;4.600;2023-06-14T04:49:14;101703.06;;;22.03;41.99
75006;BME280;63553;51.814;4.600;2023-06-14T04:51:41;101701.03;;;21.58;41.50
75006;BME280;63553;51.814;4.600;2023-06-14T04:54:10;101706.34;;;20.83;43.15
75006;BME280;63553;51.814;4.600;2023-06-14T04:56:38;101706.31;;;22.84;41.70
75006;BME280;63553;51.814;4.600;2023-06-14T04:59:03;101709.75;;;21.91;40.68
75006;BME280;63553;51.814;4.600;2023-06-14T05:01:32;101707.72;;;21.08;42.80
75006;BME280;63553;51.814;4.600;2023-06-14T05:03:58;101715.22;;;20.81;43.02
75006;BME280;63553;51.814;4.600;2023-06-14T05:06:24;101712.72;;;19.35;46.60
75006;BME280;63553;51.814;4.600;2023-06-14T05:08:50;101715.56;;;20.61;43.87
75006;BME280;63553;51.814;4.600;2023-06-14T05:11:16;101723.84;;;20.54;44.29
75006;BME280;63553;51.814;4.600;2023-06-14T05:13:42;101719.03;;;21.08;43.22
75006;BME280;63553;51.814;4.600;2023-06-14T05:16:08;101716.25;;;21.31;42.25
75006;BME280;63553;51.814;4.600;2023-06-14T05:18:34;101727.09;;;20.36;43.94
75006;BME280;63553;51.814;4.600;2023-06-14T05:21:00;101728.06;;;20.44;44.08
75006;BME280;63553;51.814;4.600;2023-06-14T05:23:26;101738.28;;;20.33;44.47
75006;BME280;63553;51.814;4.600;2023-06-14T05:25:51;101740.94;;;20.10;46.26
75006;BME280;63553;51.814;4.600;2023-06-14T05:28:17;101737.78;;;19.53;46.97
75006;BME280;63553;51.814;4.600;2023-06-14T05:30:42;101731.16;;;20.08;45.92
75006;BME280;63553;51.814;4.600;2023-06-14T05:33:07;101734.00;;;20.39;45.55
75006;BME280;63553;51.814;4.600;2023-06-14T05:35:33;101729.50;;;20.22;46.49
75006;BME280;63553;51.814;4.600;2023-06-14T05:37:58;101732.47;;;20.26;45.52
75006;BME280;63553;51.814;4.600;2023-06-14T05:40:23;101737.97;;;20.22;45.66
75006;BME280;63553;51.814;4.600;2023-06-14T05:42:49;101741.09;;;21.02;43.86
75006;BME280;63553;51.814;4.600;2023-06-14T05:45:14;101726.50;;;22.26;42.09
75006;BME280;63553;51.814;4.600;2023-06-14T05:47:41;101744.34;;;20.85;43.84
75006;BME280;63553;51.814;4.600;2023-06-14T05:50:07;101733.00;;;21.20;43.71
75006;BME280;63553;51.814;4.600;2023-06-14T05:52:34;101735.66;;;22.42;40.94
75006;BME280;63553;51.814;4.600;2023-06-14T05:54:59;101738.06;;;22.14;41.54
75006;BME280;63553;51.814;4.600;2023-06-14T05:57:25;101738.22;;;20.64;43.80
75006;BME280;63553;51.814;4.600;2023-06-14T05:59:50;101744.09;;;21.71;42.27
75006;BME280;63553;51.814;4.600;2023-06-14T06:02:16;101742.38;;;21.05;43.36
75006;BME280;63553;51.814;4.600;2023-06-14T06:04:41;101736.84;;;21.92;43.00
75006;BME280;63553;51.814;4.600;2023-06-14T06:07:07;101740.31;;;21.82;41.95
75006;BME280;63553;51.814;4.600;2023-06-14T06:09:32;101742.97;;;21.33;43.17
75006;BME280;63553;51.814;4.600;2023-06-14T06:11:58;101736.41;;;21.48;42.66
75006;BME280;63553;51.814;4.600;2023-06-14T06:14:23;101733.94;;;21.89;41.95
75006;BME280;63553;51.814;4.600;2023-06-14T06:16:48;101738.91;;;21.73;42.87
75006;BME280;63553;51.814;4.600;2023-06-14T06:19:14;101735.84;;;22.79;40.47
75006;BME280;63553;51.814;4.600;2023-06-14T06:21:39;101744.16;;;23.24;40.01
75006;BME280;63553;51.814;4.600;2023-06-14T06:24:05;101739.16;;;22.32;40.98
75006;BME280;63553;51.814;4.600;2023-06-14T06:26:32;101737.81;;;22.75;40.55
75006;BME280;63553;51.814;4.600;2023-06-14T06:28:58;101740.91;;;22.66;39.72
75006;BME280;63553;51.814;4.600;2023-06-14T06:31:24;101750.19;;;21.92;41.62
75006;BME280;63553;51.814;4.600;2023-06-14T06:33:49;101744.53;;;21.92;40.94
75006;BME280;63553;51.814;4.600;2023-06-14T06:36:15;101751.03;;;22.94;39.64
75006;BME280;63553;51.814;4.600;2023-06-14T06:38:40;101751.03;;;24.41;37.50
75006;BME280;63553;51.814;4.600;2023-06-14T06:41:06;101756.75;;;22.97;39.59
75006;BME280;63553;51.814;4.600;2023-06-14T06:43:31;101756.06;;;22.78;40.17
75006;BME280;63553;51.814;4.600;2023-06-14T06:45:56;101750.22;;;22.41;40.06
75006;BME280;63553;51.814;4.600;2023-06-14T06:48:22;101754.06;;;24.15;37.44
75006;BME280;63553;51.814;4.600;2023-06-14T06:50:47;101765.03;;;22.57;40.19
75006;BME280;63553;51.814;4.600;2023-06-14T06:53:12;101753.53;;;23.62;38.61
75006;BME280;63553;51.814;4.600;2023-06-14T06:55:38;101773.88;;;24.52;36.74
75006;BME280;63553;51.814;4.600;2023-06-14T06:58:03;101769.03;;;24.59;35.89
75006;BME280;63553;51.814;4.600;2023-06-14T07:00:30;101781.59;;;23.04;39.43
75006;BME280;63553;51.814;4.600;2023-06-14T07:02:55;101777.09;;;23.33;39.33
75006;BME280;63553;51.814;4.600;2023-06-14T07:05:22;101774.53;;;23.54;38.79
75006;BME280;63553;51.814;4.600;2023-06-14T07:07:48;101781.84;;;23.92;37.77
75006;BME280;63553;51.814;4.600;2023-06-14T07:10:13;101788.47;;;22.54;41.09
75006;BME280;63553;51.814;4.600;2023-06-14T07:12:38;101789.34;;;23.10;39.14
75006;BME280;63553;51.814;4.600;2023-06-14T07:15:06;101787.00;;;23.16;39.71
75006;BME280;63553;51.814;4.600;2023-06-14T07:17:32;101791.69;;;24.96;37.19
75006;BME280;63553;51.814;4.600;2023-06-14T07:19:59;101794.34;;;24.75;37.25
75006;BME280;63553;51.814;4.600;2023-06-14T07:22:24;101788.78;;;24.89;37.19
75006;BME280;63553;51.814;4.600;2023-06-14T07:24:49;101792.91;;;25.88;35.66
75006;BME280;63553;51.814;4.600;2023-06-14T07:27:14;101784.44;;;26.27;35.07
75006;BME280;63553;51.814;4.600;2023-06-14T07:29:40;101788.28;;;24.25;37.65
75006;BME280;63553;51.814;4.600;2023-06-14T07:32:06;101792.16;;;24.54;37.12
75006;BME280;63553;51.814;4.600;2023-06-14T07:34:31;101790.13;;;26.27;35.20
75006;BME280;63553;51.814;4.600;2023-06-14T07:36:57;101796.91;;;23.96;37.99
75006;BME280;63553;51.814;4.600;2023-06-14T07:39:22;101802.34;;;24.11;37.00
75006;BME280;63553;51.814;4.600;2023-06-14T07:41:48;101809.06;;;24.80;36.55
75006;BME280;63553;51.814;4.600;2023-06-14T07:44:13;101808.34;;;23.66;38.08
75006;BME280;63553;51.814;4.600;2023-06-14T07:46:39;101811.44;;;23.91;37.92
75006;BME280;63553;51.814;4.600;2023-06-14T07:49:04;101803.75;;;24.79;36.50
75006;BME280;63553;51.814;4.600;2023-06-14T07:51:30;101800.19;;;25.89;35.44
75006;BME280;63553;51.814;4.600;2023-06-14T07:53:55;101813.16;;;25.66;35.16
75006;BME280;63553;51.814;4.600;2023-06-14T07:56:21;101808.97;;;24.70;37.09
75006;BME280;63553;51.814;4.600;2023-06-14T07:58:47;101810.44;;;24.50;37.46
75006;BME280;63553;51.814;4.600;2023-06-14T08:01:12;101807.97;;;26.03;34.80
75006;BME280;63553;51.814;4.600;2023-06-14T08:03:38;101813.03;;;25.37;35.62
75006;BME280;63553;51.814;4.600;2023-06-14T08:06:04;101810.47;;;26.22;35.10
75006;BME280;63553;51.814;4.600;2023-06-14T08:08:29;101815.47;;;25.32;35.06
75006;BME280;63553;51.814;4.600;2023-06-14T08:10:55;101815.81;;;25.23;35.24
75006;BME280;63553;51.814;4.600;2023-06-14T08:13:20;101808.03;;;26.52;34.01
75006;BME280;63553;51.814;4.600;2023-06-14T08:15:46;101812.25;;;24.75;36.23
75006;BME280;63553;51.814;4.600;2023-06-14T08:18:11;101807.22;;;26.38;34.18
75006;BME280;63553;51.814;4.600;2023-06-14T08:20:36;101816.31;;;25.43;34.88
75006;BME280;63553;51.814;4.600;2023-06-14T08:23:03;101805.88;;;27.31;34.45
75006;BME280;63553;51.814;4.600;2023-06-14T08:25:29;101808.72;;;27.38;32.05
75006;BME280;63553;51.814;4.600;2023-06-14T08:27:55;101802.31;;;26.74;32.89
75006;BME280;63553;51.814;4.600;2023-06-14T08:30:21;101815.31;;;25.97;33.65
75006;BME280;63553;51.814;4.600;2023-06-14T08:32:46;101805.16;;;26.98;32.54
75006;BME280;63553;51.814;4.600;2023-06-14T08:35:11;101805.50;;;27.15;32.21
75006;BME280;63553;51.814;4.600;2023-06-14T08:37:41;101815.22;;;25.65;33.46
75006;BME280;63553;51.814;4.600;2023-06-14T08:40:26;101807.44;;;27.53;31.40
75006;BME280;63553;51.814;4.600;2023-06-14T08:42:55;101802.09;;;27.62;31.33
75006;BME280;63553;51.814;4.600;2023-06-14T08:45:21;101806.41;;;26.69;31.69
75006;BME280;63553;51.814;4.600;2023-06-14T08:47:47;101812.03;;;25.91;32.09
75006;BME280;63553;51.814;4.600;2023-06-14T08:50:20;101812.88;;;26.03;32.03
75006;BME280;63553;51.814;4.600;2023-06-14T08:52:48;101812.91;;;26.20;32.25
75006;BME280;63553;51.814;4.600;2023-06-14T08:55:18;101810.41;;;25.94;32.19
75006;BME280;63553;51.814;4.600;2023-06-14T08:57:46;101803.88;;;25.93;32.85
75006;BME280;63553;51.814;4.600;2023-06-14T09:00:13;101811.81;;;25.42;34.00
75006;BME280;63553;51.814;4.600;2023-06-14T09:02:39;101823.00;;;25.82;32.79
75006;BME280;63553;51.814;4.600;2023-06-14T09:05:12;101815.06;;;25.30;33.67
75006;BME280;63553;51.814;4.600;2023-06-14T09:07:39;101818.72;;;25.34;33.54
75006;BME280;63553;51.814;4.600;2023-06-14T09:10:11;101813.44;;;25.32;33.50
75006;BME280;63553;51.814;4.600;2023-06-14T09:12:36;101821.31;;;25.57;33.29
75006;BME280;63553;51.814;4.600;2023-06-14T09:15:03;101813.34;;;26.19;32.80
75006;BME280;63553;51.814;4.600;2023-06-14T09:17:40;101831.31;;;25.33;33.49
75006;BME280;63553;51.814;4.600;2023-06-14T09:20:07;101831.94;;;25.77;33.76
75006;BME280;63553;51.814;4.600;2023-06-14T09:22:42;101817.41;;;26.32;32.02
75006;BME280;63553;51.814;4.600;2023-06-14T09:25:08;101819.44;;;26.35;33.27
75006;BME280;63553;51.814;4.600;2023-06-14T09:27:33;101825.16;;;26.88;32.56
75006;BME280;63553;51.814;4.600;2023-06-14T09:29:59;101810.03;;;26.06;32.16
75006;BME280;63553;51.814;4.600;2023-06-14T09:32:25;101836.03;;;25.80;32.97
75006;BME280;63553;51.814;4.600;2023-06-14T09:34:50;101833.81;;;25.45;32.83
75006;BME280;63553;51.814;4.600;2023-06-14T09:37:29;101834.28;;;25.51;32.29
75006;BME280;63553;51.814;4.600;2023-06-14T09:39:55;101840.50;;;25.84;31.42
75006;BME280;63553;51.814;4.600;2023-06-14T09:42:21;101836.47;;;25.89;31.42
75006;BME280;63553;51.814;4.600;2023-06-14T09:44:47;101838.00;;;25.62;30.97
75006;BME280;63553;51.814;4.600;2023-06-14T09:47:15;101831.16;;;25.91;31.72
75006;BME280;63553;51.814;4.600;2023-06-14T09:49:41;101840.16;;;26.11;31.16
75006;BME280;63553;51.814;4.600;2023-06-14T09:52:07;101837.38;;;26.88;29.73
75006;BME280;63553;51.814;4.600;2023-06-14T09:54:40;101837.41;;;26.81;29.58
75006;BME280;63553;51.814;4.600;2023-06-14T09:57:07;101846.25;;;26.02;30.47
75006;BME280;63553;51.814;4.600;2023-06-14T09:59:34;101837.28;;;26.00;30.63
75006;BME280;63553;51.814;4.600;2023-06-14T10:02:08;101836.97;;;26.26;30.44
75006;BME280;63553;51.814;4.600;2023-06-14T10:04:35;101833.72;;;26.95;29.90
75006;BME280;63553;51.814;4.600;2023-06-14T10:07:03;101832.09;;;26.66;29.11
75006;BME280;63553;51.814;4.600;2023-06-14T10:09:30;101826.38;;;26.48;29.60
75006;BME280;63553;51.814;4.600;2023-06-14T10:11:56;101821.81;;;27.25;28.49
75006;BME280;63553;51.814;4.600;2023-06-14T10:14:21;101838.16;;;27.14;29.13
75006;BME280;63553;51.814;4.600;2023-06-14T10:16:56;101836.53;;;27.16;29.47
75006;BME280;63553;51.814;4.600;2023-06-14T10:19:40;101827.97;;;27.09;27.58
75006;BME280;63553;51.814;4.600;2023-06-14T10:22:10;101824.63;;;27.46;28.08
75006;BME280;63553;51.814;4.600;2023-06-14T10:24:42;101823.41;;;27.43;27.09
75006;BME280;63553;51.814;4.600;2023-06-14T10:27:08;101827.09;;;27.30;26.36
75006;BME280;63553;51.814;4.600;2023-06-14T10:32:23;101824.72;;;27.07;27.55
75006;BME280;63553;51.814;4.600;2023-06-14T10:34:58;101830.03;;;26.87;28.27
75006;BME280;63553;51.814;4.600;2023-06-14T10:37:23;101820.66;;;27.04;28.32
75006;BME280;63553;51.814;4.600;2023-06-14T10:39:52;101823.47;;;27.12;27.66
75006;BME280;63553;51.814;4.600;2023-06-14T10:42:18;101827.97;;;27.16;26.95
75006;BME280;63553;51.814;4.600;2023-06-14T10:44:55;101815.75;;;26.77;27.17
75006;BME280;63553;51.814;4.600;2023-06-14T10:50:02;101834.94;;;26.41;27.75
75006;BME280;63553;51.814;4.600;2023-06-14T10:52:29;101825.97;;;26.21;28.45
75006;BME280;63553;51.814;4.600;2023-06-14T10:55:12;101827.50;;;26.05;28.36
75006;BME280;63553;51.814;4.600;2023-06-14T10:57:53;101831.19;;;26.09;28.28
75006;BME280;63553;51.814;4.600;2023-06-14T11:00:28;101824.28;;;26.06;29.64
75006;BME280;63553;51.814;4.600;2023-06-14T11:03:28;101829.91;;;25.74;28.42
75006;BME280;63553;51.814;4.600;2023-06-14T11:05:58;101833.97;;;25.73;28.88
75006;BME280;63553;51.814;4.600;2023-06-14T11:11:22;101832.31;;;25.72;28.28
75006;BME280;63553;51.814;4.600;2023-06-14T11:13:48;101833.53;;;25.75;29.06
75006;BME280;63553;51.814;4.600;2023-06-14T11:16:17;101827.47;;;25.76;29.08
75006;BME280;63553;51.814;4.600;2023-06-14T11:18:45;101829.75;;;25.46;28.22
75006;BME280;63553;51.814;4.600;2023-06-14T11:21:11;101834.72;;;25.56;28.48
75006;BME280;63553;51.814;4.600;2023-06-14T11:23:36;101828.63;;;25.61;28.91
75006;BME280;63553;51.814;4.600;2023-06-14T11:26:02;101827.09;;;25.95;28.91
75006;BME280;63553;51.814;4.600;2023-06-14T11:28:37;101836.06;;;26.05;28.30
75006;BME280;63553;51.814;4.600;2023-06-14T11:31:03;101822.94;;;25.72;28.35
75006;BME280;63553;51.814;4.600;2023-06-14T11:33:29;101814.09;;;25.94;28.92
75006;BME280;63553;51.814;4.600;2023-06-14T11:35:54;101820.94;;;25.76;29.49
75006;BME280;63553;51.814;4.600;2023-06-14T11:38:20;101820.09;;;25.61;28.81
75006;BME280;63553;51.814;4.600;2023-06-14T11:40:45;101818.06;;;25.65;29.21
75006;BME280;63553;51.814;4.600;2023-06-14T11:43:10;101809.41;;;25.44;28.97
75006;BME280;63553;51.814;4.600;2023-06-14T11:45:37;101816.78;;;25.49;27.43
75006;BME280;63553;51.814;4.600;2023-06-14T11:48:02;101823.41;;;25.77;27.28
75006;BME280;63553;51.814;4.600;2023-06-14T11:50:28;101826.66;;;25.79;27.02
75006;BME280;63553;51.814;4.600;2023-06-14T11:52:58;101818.50;;;25.81;27.43
75006;BME280;63553;51.814;4.600;2023-06-14T11:55:38;101832.75;;;25.81;27.34
75006;BME280;63553;51.814;4.600;2023-06-14T11:58:04;101831.06;;;25.63;26.69
75006;BME280;63553;51.814;4.600;2023-06-14T12:00:30;101819.38;;;25.96;29.03
75006;BME280;63553;51.814;4.600;2023-06-14T12:02:56;101820.59;;;26.02;28.06
75006;BME280;63553;51.814;4.600;2023-06-14T12:05:22;101826.66;;;25.79;28.73
75006;BME280;63553;51.814;4.600;2023-06-14T12:07:49;101823.78;;;25.76;28.08
75006;BME280;63553;51.814;4.600;2023-06-14T12:10:16;101825.09;;;26.07;28.25
75006;BME280;63553;51.814;4.600;2023-06-14T12:12:42;101810.41;;;26.05;27.88
75006;BME280;63553;51.814;4.600;2023-06-14T12:15:08;101813.34;;;26.19;28.09
75006;BME280;63553;51.814;4.600;2023-06-14T12:17:35;101818.50;;;25.78;28.11
75006;BME280;63553;51.814;4.600;2023-06-14T12:20:07;101822.66;;;25.98;28.19
75006;BME280;63553;51.814;4.600;2023-06-14T12:22:36;101810.00;;;25.99;28.59
75006;BME280;63553;51.814;4.600;2023-06-14T12:25:01;101829.53;;;25.83;28.61
75006;BME280;63553;51.814;4.600;2023-06-14T12:27:28;101829.88;;;25.67;28.62
75006;BME280;63553;51.814;4.600;2023-06-14T12:30:03;101820.13;;;25.79;28.87
75006;BME280;63553;51.814;4.600;2023-06-14T12:32:30;101819.38;;;26.00;29.31
75006;BME280;63553;51.814;4.600;2023-06-14T12:34:55;101809.69;;;26.22;28.55
75006;BME280;63553;51.814;4.600;2023-06-14T12:37:20;101809.19;;;26.02;28.51
75006;BME280;63553;51.814;4.600;2023-06-14T12:39:46;101808.44;;;26.16;28.65
75006;BME280;63553;51.814;4.600;2023-06-14T12:42:12;101809.22;;;26.13;28.55
75006;BME280;63553;51.814;4.600;2023-06-14T12:44:39;101819.75;;;25.80;29.04
75006;BME280;63553;51.814;4.600;2023-06-14T12:47:06;101818.84;;;25.59;28.71
75006;BME280;63553;51.814;4.600;2023-06-14T12:49:32;101808.94;;;25.31;28.96
75006;BME280;63553;51.814;4.600;2023-06-14T12:51:58;101807.03;;;25.60;29.85
75006;BME280;63553;51.814;4.600;2023-06-14T12:54:23;101821.72;;;25.66;29.50
75006;BME280;63553;51.814;4.600;2023-06-14T12:56:51;101816.50;;;25.89;28.78
75006;BME280;63553;51.814;4.600;2023-06-14T12:59:17;101809.59;;;26.08;28.66